createdAt,value
2019-06-20T00:00:48.247Z,69.20
2019-06-20T00:04:53.008Z,69.80
2019-06-20T00:08:57.767Z,70.20
2019-06-20T00:13:02.521Z,70.60
2019-06-20T00:17:07.311Z,70.80
2019-06-20T00:21:12.035Z,72.50
2019-06-20T00:25:17.889Z,72.20
2019-06-20T00:29:22.753Z,72.20
2019-06-20T00:33:27.451Z,73.70
2019-06-20T00:37:33.183Z,82.00
2019-06-20T00:41:38.183Z,89.00
2019-06-20T00:45:42.937Z,88.60
2019-06-20T00:49:47.606Z,92.20
2019-06-20T00:53:52.264Z,94.70
2019-06-20T00:57:56.973Z,95.80
2019-06-20T01:02:01.680Z,96.80
2019-06-20T01:06:06.796Z,97.60
2019-06-20T01:10:12.154Z,97.40
2019-06-20T01:14:16.825Z,97.20
2019-06-20T01:18:21.567Z,95.30
2019-06-20T01:22:26.424Z,95.40
2019-06-20T01:26:31.081Z,92.90
2019-06-20T01:30:35.813Z,92.10
2019-06-20T01:34:40.617Z,92.20
2019-06-20T01:38:45.388Z,92.10
2019-06-20T01:42:50.090Z,93.40
2019-06-20T01:46:54.816Z,94.20
2019-06-20T01:50:59.508Z,94.90
2019-06-20T01:55:05.347Z,95.10
2019-06-20T01:59:10.342Z,95.90
2019-06-20T02:03:15.950Z,96.70
2019-06-20T02:07:20.854Z,97.30
2019-06-20T02:11:25.662Z,97.80
2019-06-20T02:15:30.485Z,98.30
2019-06-20T02:19:35.237Z,98.40
2019-06-20T02:23:39.926Z,99.30
2019-06-20T02:27:44.884Z,99.90
2019-06-20T02:31:49.626Z,99.90
2019-06-20T02:35:54.385Z,99.90
2019-06-20T02:39:59.179Z,99.90
2019-06-20T02:44:04.150Z,99.90
2019-06-20T02:48:09.127Z,99.90
2019-06-20T02:52:14.236Z,99.90
2019-06-20T02:56:18.949Z,99.90
2019-06-20T03:00:35.412Z,99.90
2019-06-20T03:04:40.149Z,99.90
2019-06-20T03:08:44.849Z,99.90
2019-06-20T03:12:49.521Z,99.90
2019-06-20T03:16:54.305Z,99.90
2019-06-20T03:20:59.102Z,99.90
2019-06-20T03:25:04.149Z,99.90
2019-06-20T03:29:08.994Z,99.90
2019-06-20T03:33:13.789Z,99.90
2019-06-20T03:37:18.547Z,99.90
2019-06-20T03:41:23.317Z,99.90
2019-06-20T03:45:29.135Z,99.90
2019-06-20T03:49:33.856Z,99.90
2019-06-20T03:53:38.523Z,99.90
2019-06-20T03:57:43.226Z,99.90
2019-06-20T04:01:49.237Z,99.90
2019-06-20T04:05:55.401Z,99.90
2019-06-20T04:10:01.080Z,99.90
2019-06-20T04:14:06.938Z,99.90
2019-06-20T04:18:11.649Z,99.90
2019-06-20T04:22:16.739Z,99.90
2019-06-20T04:26:21.438Z,99.90
2019-06-20T04:30:26.277Z,99.90
2019-06-20T04:34:31.032Z,99.90
2019-06-20T04:38:35.751Z,99.90
2019-06-20T04:42:40.409Z,99.90
2019-06-20T04:46:56.614Z,99.90
2019-06-20T04:51:01.427Z,99.90
2019-06-20T04:55:06.489Z,99.90
2019-06-20T04:59:12.312Z,99.90
2019-06-20T05:03:18.336Z,99.90
2019-06-20T05:07:23.008Z,99.90
2019-06-20T05:11:27.719Z,99.90
2019-06-20T05:15:32.579Z,99.90
2019-06-20T05:19:37.301Z,99.90
2019-06-20T05:23:42.058Z,99.90
2019-06-20T05:27:46.762Z,99.90
2019-06-20T05:31:51.448Z,99.90
2019-06-20T05:35:56.130Z,99.70
2019-06-20T05:40:07.770Z,98.80
2019-06-20T05:44:13.764Z,98.00
2019-06-20T05:48:18.884Z,99.40
2019-06-20T05:52:23.648Z,97.70
2019-06-20T05:56:28.359Z,96.60
2019-06-20T06:00:33.429Z,96.60
2019-06-20T06:04:38.175Z,98.40
2019-06-20T06:08:42.870Z,98.10
2019-06-20T06:12:47.572Z,97.50
2019-06-20T06:16:52.346Z,99.60
2019-06-20T06:20:57.105Z,99.80
2019-06-20T06:25:01.802Z,99.90
2019-06-20T06:29:06.604Z,99.90
2019-06-20T06:33:11.295Z,99.90
2019-06-20T06:37:16.038Z,99.90
2019-06-20T06:41:20.913Z,99.90
2019-06-20T06:45:25.998Z,99.90
2019-06-20T06:49:30.781Z,99.90
2019-06-20T06:53:35.469Z,99.90
2019-06-20T06:57:40.268Z,99.90
2019-06-20T07:01:45.111Z,99.90
2019-06-20T07:05:49.793Z,99.90
2019-06-20T07:09:54.937Z,99.90
2019-06-20T07:13:59.697Z,99.90
2019-06-20T07:18:04.717Z,99.90
2019-06-20T07:22:09.450Z,99.90
2019-06-20T07:26:14.143Z,99.90
2019-06-20T07:30:20.709Z,99.90
2019-06-20T07:34:26.598Z,99.90
2019-06-20T07:38:31.369Z,99.90
2019-06-20T07:42:37.455Z,99.90
2019-06-20T07:46:42.775Z,99.90
2019-06-20T07:50:47.749Z,99.90
2019-06-20T07:54:52.630Z,99.90
2019-06-20T07:58:57.475Z,99.90
2019-06-20T08:03:02.322Z,99.90
2019-06-20T08:07:07.014Z,99.90
2019-06-20T08:11:11.831Z,99.90
2019-06-20T08:15:17.186Z,99.90
2019-06-20T08:19:23.976Z,99.90
2019-06-20T08:23:28.825Z,99.90
2019-06-20T08:27:54.105Z,99.90
2019-06-20T08:31:59.745Z,99.90
2019-06-20T08:36:06.711Z,99.90
2019-06-20T08:40:11.726Z,99.90
2019-06-20T08:44:16.509Z,99.90
2019-06-20T08:48:21.414Z,99.40
2019-06-20T08:52:26.531Z,96.20
2019-06-20T08:56:32.835Z,94.80
2019-06-20T09:00:38.581Z,93.20
2019-06-20T09:04:43.477Z,94.40
2019-06-20T09:08:48.276Z,95.30
2019-06-20T09:12:54.071Z,92.90
2019-06-20T09:17:00.675Z,92.30
2019-06-20T09:21:05.613Z,96.00
2019-06-20T09:25:11.028Z,98.40
2019-06-20T09:29:15.858Z,99.90
2019-06-20T09:33:20.707Z,99.90
2019-06-20T09:37:25.359Z,99.90
2019-06-20T09:41:30.339Z,99.90
2019-06-20T09:45:35.403Z,99.90
2019-06-20T09:49:40.265Z,99.90
2019-06-20T09:53:45.197Z,99.50
2019-06-20T09:57:50.810Z,99.20
2019-06-20T10:01:58.547Z,99.90
2019-06-20T10:06:12.740Z,99.30
2019-06-20T10:10:12.900Z,97.60
2019-06-20T10:14:18.235Z,97.20
2019-06-20T10:18:23.211Z,96.00
2019-06-20T10:22:27.985Z,97.60
2019-06-20T10:26:32.783Z,95.30
2019-06-20T10:30:37.487Z,94.00
2019-06-20T10:34:42.374Z,91.60
2019-06-20T10:38:48.021Z,91.10
2019-06-20T10:42:53.235Z,90.40
2019-06-20T10:46:58.005Z,84.30
2019-06-20T10:51:20.821Z,79.50
2019-06-20T10:55:25.756Z,81.60
2019-06-20T10:59:30.732Z,79.40
2019-06-20T11:03:35.443Z,89.80
2019-06-20T11:07:40.753Z,89.70
2019-06-20T11:11:47.088Z,90.20
2019-06-20T11:15:51.917Z,87.40
2019-06-20T11:19:57.201Z,88.50
2019-06-20T11:24:01.877Z,84.80
2019-06-20T11:28:06.598Z,83.30
2019-06-20T11:32:13.619Z,80.10
2019-06-20T11:36:18.318Z,82.80
2019-06-20T11:40:23.327Z,81.40
2019-06-20T11:44:31.908Z,79.70
2019-06-20T11:48:36.945Z,75.30
2019-06-20T11:52:45.291Z,77.40
2019-06-20T11:56:48.291Z,77.60
2019-06-20T12:01:03.230Z,77.30
2019-06-20T12:04:59.681Z,77.30
2019-06-20T12:09:05.971Z,79.40
2019-06-20T12:13:11.104Z,76.20
2019-06-20T12:17:15.821Z,76.30
2019-06-20T12:21:20.462Z,79.40
2019-06-20T12:25:27.129Z,84.10
2019-06-20T12:29:32.891Z,81.70
2019-06-20T12:33:38.229Z,76.70
2019-06-20T12:37:45.218Z,79.10
2019-06-20T12:41:50.316Z,71.10
2019-06-20T12:45:55.037Z,74.90
2019-06-20T12:49:59.739Z,71.60
2019-06-20T12:54:05.393Z,71.10
2019-06-20T12:58:10.116Z,74.20
2019-06-20T13:02:14.972Z,75.60
2019-06-20T13:06:19.879Z,75.00
2019-06-20T13:10:25.657Z,72.20
2019-06-20T13:14:30.415Z,66.10
2019-06-20T13:18:35.483Z,70.70
2019-06-20T13:22:41.378Z,74.10
2019-06-20T13:26:46.478Z,75.80
2019-06-20T13:30:52.227Z,76.60
2019-06-20T13:34:57.139Z,79.20
2019-06-20T13:39:01.859Z,80.80
2019-06-20T13:43:08.122Z,82.70
2019-06-20T13:47:12.952Z,82.70
2019-06-20T13:51:17.682Z,83.50
2019-06-20T13:55:22.484Z,84.30
2019-06-20T13:59:27.249Z,86.30
2019-06-20T14:03:31.907Z,88.30
2019-06-20T14:07:36.578Z,90.40
2019-06-20T14:11:43.214Z,91.70
2019-06-20T14:15:48.533Z,91.70
2019-06-20T14:19:56.521Z,94.90
2019-06-20T14:24:01.389Z,95.50
2019-06-20T14:28:06.126Z,94.80
2019-06-20T14:32:21.745Z,96.30
2019-06-20T14:36:17.365Z,95.80
2019-06-20T14:40:22.249Z,95.00
2019-06-20T14:44:26.988Z,95.60
2019-06-20T14:48:31.648Z,95.30
2019-06-20T14:52:36.297Z,97.00
2019-06-20T14:56:44.524Z,98.30
2019-06-20T15:00:49.770Z,98.40
2019-06-20T15:04:54.525Z,99.00
2019-06-20T15:09:04.751Z,98.50
2019-06-20T15:13:07.220Z,97.90
2019-06-20T15:17:12.137Z,97.30
2019-06-20T15:21:16.936Z,95.30
2019-06-20T15:25:22.217Z,95.00
2019-06-20T15:29:26.958Z,94.00
2019-06-20T15:33:31.685Z,93.60
2019-06-20T15:37:36.421Z,93.30
2019-06-20T15:41:41.566Z,92.90
2019-06-20T15:45:48.346Z,92.50
2019-06-20T15:49:52.620Z,93.30
2019-06-20T15:53:57.288Z,93.80
2019-06-20T15:58:02.125Z,93.40
2019-06-20T16:02:07.796Z,93.10
2019-06-20T16:06:12.470Z,92.70
2019-06-20T16:10:17.851Z,92.00
2019-06-20T16:14:22.538Z,92.40
2019-06-20T16:18:27.306Z,92.60
2019-06-20T16:22:31.993Z,92.00
2019-06-20T16:26:36.838Z,91.70
2019-06-20T16:30:41.482Z,92.60
2019-06-20T16:34:46.274Z,92.80
2019-06-20T16:38:50.934Z,92.80
2019-06-20T16:42:55.745Z,91.80
2019-06-20T16:47:00.452Z,90.20
2019-06-20T16:51:05.318Z,90.90
2019-06-20T16:55:10.110Z,90.10
2019-06-20T16:59:14.839Z,90.60
2019-06-20T17:03:19.615Z,91.20
2019-06-20T17:07:24.339Z,91.30
2019-06-20T17:11:29.043Z,91.10
2019-06-20T17:15:33.815Z,91.40
2019-06-20T17:19:42.082Z,92.30
2019-06-20T17:23:45.149Z,92.60
2019-06-20T17:27:49.892Z,93.20
2019-06-20T17:31:57.373Z,93.00
2019-06-20T17:36:16.985Z,93.30
2019-06-20T17:40:09.334Z,93.80
2019-06-20T17:44:14.427Z,93.40
2019-06-20T17:48:19.121Z,93.80
2019-06-20T17:52:23.942Z,93.80
2019-06-20T17:56:28.795Z,93.60
2019-06-20T18:00:35.051Z,93.80
2019-06-20T18:04:40.255Z,93.80
2019-06-20T18:08:45.177Z,93.70
2019-06-20T18:12:50.021Z,93.10
2019-06-20T18:16:55.583Z,93.20
2019-06-20T18:21:00.328Z,93.00
2019-06-20T18:25:06.904Z,93.60
2019-06-20T18:29:12.082Z,93.90
2019-06-20T18:33:18.455Z,94.10
2019-06-20T18:37:31.487Z,94.60
2019-06-20T18:41:30.138Z,94.40
2019-06-20T18:45:34.961Z,94.40
2019-06-20T18:49:39.800Z,94.30
2019-06-20T18:53:44.509Z,94.90
2019-06-20T18:57:49.404Z,94.40
2019-06-20T19:01:54.247Z,94.70
2019-06-20T19:05:59.423Z,94.60
2019-06-20T19:10:05.214Z,94.80
2019-06-20T19:14:12.575Z,95.30
2019-06-20T19:18:16.724Z,95.30
2019-06-20T19:22:21.624Z,96.10
2019-06-20T19:26:26.475Z,96.00
2019-06-20T19:30:39.175Z,95.90
2019-06-20T19:34:43.905Z,96.20
2019-06-20T19:38:48.668Z,96.60
2019-06-20T19:42:53.373Z,96.20
2019-06-20T19:46:58.501Z,96.20
2019-06-20T19:51:03.335Z,96.10
2019-06-20T19:55:08.618Z,97.60
2019-06-20T19:59:14.574Z,97.60
2019-06-20T20:03:20.091Z,98.20
2019-06-20T20:07:24.883Z,98.00
2019-06-20T20:11:29.879Z,98.00
2019-06-20T20:15:35.535Z,98.80
2019-06-20T20:19:40.549Z,98.60
2019-06-20T20:23:45.778Z,98.60
2019-06-20T20:33:02.226Z,99.00
2019-06-20T20:37:07.497Z,99.40
2019-06-20T20:41:13.275Z,99.30
2019-06-20T20:45:19.896Z,99.60
2019-06-20T20:49:27.019Z,99.60
2019-06-20T20:53:32.595Z,99.50
2019-06-20T20:57:38.937Z,99.70
2019-06-20T21:01:44.284Z,99.90
2019-06-20T21:05:51.723Z,99.60
2019-06-20T21:09:56.925Z,99.70
2019-06-20T21:14:01.932Z,99.60
2019-06-20T21:18:06.850Z,99.90
2019-06-20T21:22:11.649Z,99.90
2019-06-20T21:26:21.137Z,99.90
2019-06-20T21:30:26.646Z,99.90
2019-06-20T21:34:31.897Z,99.90
2019-06-20T21:38:36.729Z,99.90
2019-06-20T21:42:41.771Z,99.90
2019-06-20T21:46:47.747Z,99.90
2019-06-20T21:50:52.925Z,99.90
2019-06-20T21:54:57.919Z,99.90
2019-06-20T21:59:02.910Z,99.90
2019-06-20T22:03:09.283Z,99.90
2019-06-20T22:07:15.303Z,99.90
2019-06-20T22:11:20.224Z,99.90
2019-06-20T22:15:25.202Z,99.90
2019-06-20T22:19:31.755Z,99.90
2019-06-20T22:23:36.571Z,99.90
2019-06-20T22:27:41.605Z,99.90
2019-06-20T22:31:46.419Z,99.90
2019-06-20T22:35:51.179Z,99.90
2019-06-20T22:39:56.424Z,99.90
2019-06-20T22:44:01.275Z,99.90
2019-06-20T22:48:06.514Z,99.90
2019-06-20T22:52:11.390Z,99.90
2019-06-20T22:56:16.196Z,99.90
2019-06-20T23:00:21.258Z,99.90
2019-06-20T23:04:26.629Z,99.90
2019-06-20T23:08:34.454Z,99.90
2019-06-20T23:12:39.420Z,99.90
2019-06-20T23:16:44.358Z,99.90
2019-06-20T23:21:03.979Z,99.90
2019-06-20T23:24:56.183Z,99.90
2019-06-20T23:29:19.795Z,99.90
2019-06-20T23:33:26.974Z,99.90
2019-06-20T23:37:32.871Z,99.90
2019-06-20T23:41:37.522Z,99.90
2019-06-20T23:45:42.171Z,99.90
2019-06-20T23:49:46.848Z,99.90
2019-06-20T23:53:51.612Z,99.90
2019-06-20T23:57:56.386Z,99.90
